Time;durP1;ratioP1;P1;durP2;ratioP2;P2;SDS_P1;SDS_P2;PMS_P1;PMS_P2;Temp;Humidity;BMP_temperature;BMP_pressure;BME280_temperature;BME280_humidity;BME280_pressure;Samples;Min_cycle;Max_cycle;Signal;HPM_P1;HPM_P2
2022/12/13 00:01:23;;;;;;;;;;;;;;;21.00;43.44;100783.44;5035199;28;4358;-75
2022/12/13 00:03:51;;;;;;;;;;;;;;;20.97;43.51;100779.72;5041659;28;4325;-74
2022/12/13 00:06:17;;;;;;;;;;;;;;;20.95;43.68;100776.75;5043558;28;4137;-75
2022/12/13 00:08:44;;;;;;;;;;;;;;;20.93;43.79;100783.16;5039539;28;5234;-75
2022/12/13 00:11:10;;;;;;;;;;;;;;;20.93;43.46;100780.28;5034750;28;4000;-75
2022/12/13 00:13:37;;;;;;;;;;;;;;;20.92;43.66;100778.81;5035299;28;4162;-75
2022/12/13 00:16:04;;;;;;;;;;;;;;;20.92;43.42;100778.09;5041594;28;4172;-74
2022/12/13 00:18:31;;;;;;;;;;;;;;;20.91;43.40;100777.34;5042288;28;4197;-74
2022/12/13 00:20:57;;;;;;;;;;;;;;;20.91;43.28;100771.59;5045496;28;4133;-75
2022/12/13 00:23:24;;;;;;;;;;;;;;;20.92;43.49;100766.56;5042430;28;4169;-74
2022/12/13 00:25:50;;;;;;;;;;;;;;;20.92;43.36;100761.53;5047078;28;4077;-75
2022/12/13 00:28:17;;;;;;;;;;;;;;;20.95;43.57;100770.28;5038507;28;4083;-76
2022/12/13 00:30:43;;;;;;;;;;;;;;;20.96;43.34;100765.97;5044125;28;4230;-74
2022/12/13 00:33:09;;;;;;;;;;;;;;;20.96;43.38;100760.22;5035459;28;4194;-75
2022/12/13 00:35:39;;;;;;;;;;;;;;;20.93;43.34;100751.50;5044724;28;5223;-75
2022/12/13 00:38:06;;;;;;;;;;;;;;;20.92;43.61;100761.53;5040442;28;4274;-75
2022/12/13 00:40:32;;;;;;;;;;;;;;;20.91;43.79;100754.31;5037981;28;4131;-74
2022/12/13 00:42:58;;;;;;;;;;;;;;;20.91;43.59;100753.56;5041842;28;4230;-75
2022/12/13 00:45:25;;;;;;;;;;;;;;;20.90;43.62;100747.06;5045745;28;4190;-74
2022/12/13 00:47:51;;;;;;;;;;;;;;;20.89;43.41;100748.47;5046228;28;4303;-75
2022/12/13 00:50:17;;;;;;;;;;;;;;;20.89;43.68;100751.34;5043027;28;4076;-75
2022/12/13 00:52:44;;;;;;;;;;;;;;;20.88;43.49;100749.84;5043265;28;4160;-73
2022/12/13 00:55:10;;;;;;;;;;;;;;;20.88;43.43;100744.09;5046014;28;4085;-74
2022/12/13 00:57:37;;;;;;;;;;;;;;;20.87;43.42;100742.63;5044554;28;4194;-76
2022/12/13 01:00:03;;;;;;;;;;;;;;;20.92;43.41;100741.41;5039099;28;4188;-75
2022/12/13 01:02:30;;;;;;;;;;;;;;;20.96;43.35;100748.72;5041824;28;4204;-74
2022/12/13 01:04:56;;;;;;;;;;;;;;;20.98;43.48;100743.03;5045083;28;4965;-74
2022/12/13 01:07:23;;;;;;;;;;;;;;;21.00;43.56;100748.88;5043262;28;4067;-75
2022/12/13 01:09:49;;;;;;;;;;;;;;;20.97;43.64;100750.94;5044737;28;4155;-74
2022/12/13 01:12:16;;;;;;;;;;;;;;;20.95;43.91;100747.25;5039860;28;4205;-75
2022/12/13 01:14:42;;;;;;;;;;;;;;;20.93;43.77;100751.50;5045220;28;4136;-75
2022/12/13 01:17:09;;;;;;;;;;;;;;;20.91;44.09;100754.31;5041080;28;4186;-75
2022/12/13 01:19:35;;;;;;;;;;;;;;;20.91;43.88;100748.56;5045961;28;5287;-75
2022/12/13 01:22:03;;;;;;;;;;;;;;;20.88;44.28;100749.84;5048835;28;5202;-75
2022/12/13 01:24:29;;;;;;;;;;;;;;;20.89;44.22;100745.59;5049598;28;4267;-75
2022/12/13 01:26:56;;;;;;;;;;;;;;;20.88;44.23;100741.22;5040894;28;4257;-75
2022/12/13 01:29:23;;;;;;;;;;;;;;;20.87;44.29;100739.75;5039653;28;4225;-75
2022/12/13 01:31:51;;;;;;;;;;;;;;;20.87;44.21;100745.50;5039479;28;4107;-76
2022/12/13 01:34:17;;;;;;;;;;;;;;;20.88;44.33;100740.47;5052348;28;4169;-75
2022/12/13 01:36:44;;;;;;;;;;;;;;;20.88;44.01;100732.59;5048862;28;3976;-75
2022/12/13 01:39:12;;;;;;;;;;;;;;;20.87;44.05;100736.88;5045695;28;4149;-75
2022/12/13 01:41:40;;;;;;;;;;;;;;;20.89;43.97;100734.09;5053331;28;4135;-75
2022/12/13 01:44:26;;;;;;;;;;;;;;;20.90;43.86;100729.06;5052154;28;4192;-75
2022/12/13 01:46:53;;;;;;;;;;;;;;;20.89;43.90;100722.56;5033721;28;4131;-75
2022/12/13 01:49:19;;;;;;;;;;;;;;;20.88;44.07;100721.06;5054259;28;5631;-75
2022/12/13 01:51:53;;;;;;;;;;;;;;;20.86;44.13;100726.75;5044121;28;4111;-76
2022/12/13 01:54:23;;;;;;;;;;;;;;;20.86;44.03;100729.63;5047194;28;4235;-75
2022/12/13 01:56:59;;;;;;;;;;;;;;;20.86;43.89;100723.88;5054282;28;6206;-76
2022/12/13 01:59:26;;;;;;;;;;;;;;;20.85;43.95;100719.50;5054893;28;4138;-75
2022/12/13 02:01:52;;;;;;;;;;;;;;;20.85;43.86;100718.78;5052365;28;4106;-75
2022/12/13 02:04:27;;;;;;;;;;;;;;;20.83;43.73;100719.44;5056860;28;5315;-75
2022/12/13 02:06:53;;;;;;;;;;;;;;;20.83;43.96;100712.94;5050300;28;4175;-75
2022/12/13 02:09:20;;;;;;;;;;;;;;;20.83;43.70;100713.66;5055592;28;5904;-75
2022/12/13 02:11:46;;;;;;;;;;;;;;;20.84;43.73;100723.78;5052874;28;5346;-75
2022/12/13 02:14:12;;;;;;;;;;;;;;;20.84;43.70;100726.66;5056131;28;4168;-75
2022/12/13 02:16:42;;;;;;;;;;;;;;;20.85;43.68;100731.03;5048314;28;4086;-75
2022/12/13 02:19:21;;;;;;;;;;;;;;;20.86;43.70;100741.13;5038194;28;4192;-75
2022/12/13 02:38:47;;;;;;;;;;;;;;;20.80;43.37;100715.00;5017789;28;4195;-75
2022/12/13 02:41:27;;;;;;;;;;;;;;;20.80;43.29;100723.63;5033196;28;4133;-75
2022/12/13 02:44:19;;;;;;;;;;;;;;;20.82;43.20;100717.97;5037818;28;6102;-75
2022/12/13 02:46:52;;;;;;;;;;;;;;;20.82;43.07;100717.97;5035622;28;4184;-75
2022/12/13 02:49:19;;;;;;;;;;;;;;;20.84;43.21;100720.91;5034952;28;4590;-75
2022/12/13 02:51:45;;;;;;;;;;;;;;;20.83;43.21;100719.44;5037309;28;4070;-75
2022/12/13 02:54:12;;;;;;;;;;;;;;;20.84;43.33;100711.53;5028035;28;4120;-75
2022/12/13 02:56:38;;;;;;;;;;;;;;;20.82;43.29;100717.19;5045143;28;4075;-75
2022/12/13 02:59:07;;;;;;;;;;;;;;;20.80;43.15;100709.25;5044132;28;4031;-75
2022/12/13 03:01:46;;;;;;;;;;;;;;;20.80;43.24;100715.00;5044645;28;4137;-75
2022/12/13 03:04:35;;;;;;;;;;;;;;;20.80;43.11;100709.25;5047433;28;4058;-75
2022/12/13 03:07:06;;;;;;;;;;;;;;;20.80;43.19;100715.00;5045803;28;4079;-75
2022/12/13 03:09:32;;;;;;;;;;;;;;;20.78;42.94;100720.66;5044909;28;4164;-75
2022/12/13 03:14:55;;;;;;;;;;;;;;;20.78;42.94;100709.16;5046743;28;4071;-75
2022/12/13 03:17:21;;;;;;;;;;;;;;;20.78;42.79;100712.03;5044663;28;5286;-75
2022/12/13 03:19:50;;;;;;;;;;;;;;;20.79;42.84;100704.84;5045646;28;4436;-75
2022/12/13 03:22:16;;;;;;;;;;;;;;;20.80;43.04;100702.72;5041457;28;4074;-75
2022/12/13 03:24:43;;;;;;;;;;;;;;;20.80;42.85;100705.59;5039365;28;4124;-76
2022/12/13 03:27:09;;;;;;;;;;;;;;;20.79;42.68;100701.25;5043084;28;4189;-75
2022/12/13 03:29:36;;;;;;;;;;;;;;;20.80;42.92;100697.72;5042666;28;5079;-75
2022/12/13 03:32:03;;;;;;;;;;;;;;;20.79;42.95;100695.50;5036349;28;5168;-75
2022/12/13 03:34:32;;;;;;;;;;;;;;;20.77;42.98;100696.13;5047957;28;4319;-75
2022/12/13 03:37:10;;;;;;;;;;;;;;;20.77;42.88;100699.00;5045987;28;4645;-76
2022/12/13 03:39:37;;;;;;;;;;;;;;;20.76;42.76;100697.53;5037772;28;4172;-76
2022/12/13 03:42:06;;;;;;;;;;;;;;;20.75;42.77;100690.28;5048802;28;4234;-75
2022/12/13 03:44:32;;;;;;;;;;;;;;;20.75;42.64;100696.06;5042437;28;4181;-75
2022/12/13 03:46:59;;;;;;;;;;;;;;;20.74;42.62;100688.81;5044837;28;4186;-76
2022/12/13 03:49:26;;;;;;;;;;;;;;;20.76;42.65;100686.03;5041580;28;4173;-75
2022/12/13 03:52:01;;;;;;;;;;;;;;;20.79;42.41;100683.97;5042298;28;4130;-75
2022/12/13 03:54:27;;;;;;;;;;;;;;;20.80;42.44;100685.44;5043019;28;4188;-74
2022/12/13 03:56:53;;;;;;;;;;;;;;;20.76;42.75;100683.16;5044440;28;4213;-76
2022/12/13 03:59:20;;;;;;;;;;;;;;;20.77;42.61;100678.13;5039331;28;4183;-76
2022/12/13 04:01:47;;;;;;;;;;;;;;;20.81;42.13;100681.94;5038974;28;4329;-75
2022/12/13 04:04:13;;;;;;;;;;;;;;;20.83;42.26;100678.41;5046316;28;4952;-75
2022/12/13 04:06:39;;;;;;;;;;;;;;;20.85;42.35;100684.25;5051615;28;4245;-75
2022/12/13 04:09:06;;;;;;;;;;;;;;;20.84;42.46;100680.59;5046977;28;5263;-75
2022/12/13 04:14:17;;;;;;;;;;;;;;;20.85;42.66;100675.59;5040222;28;4314;-75
2022/12/13 04:16:48;;;;;;;;;;;;;;;20.83;42.74;100672.66;5040740;28;4117;-76
2022/12/13 04:19:14;;;;;;;;;;;;;;;20.83;42.65;100679.13;5038138;28;6319;-75
2022/12/13 04:21:48;;;;;;;;;;;;;;;20.81;42.50;100676.16;5034999;28;4120;-75
2022/12/13 04:24:15;;;;;;;;;;;;;;;20.78;42.53;100680.38;5036210;28;4187;-76
2022/12/13 04:26:41;;;;;;;;;;;;;;;20.79;42.53;100684.72;5033876;28;4147;-76
2022/12/13 04:29:07;;;;;;;;;;;;;;;20.79;42.55;100672.47;5039241;28;5213;-76
2022/12/13 04:31:34;;;;;;;;;;;;;;;20.80;42.18;100683.34;5030392;28;4121;-76
2022/12/13 04:34:00;;;;;;;;;;;;;;;20.78;42.28;100671.75;5041398;28;5339;-76
2022/12/13 04:36:27;;;;;;;;;;;;;;;20.77;42.24;100670.25;5036637;28;4237;-75
2022/12/13 04:38:57;;;;;;;;;;;;;;;20.77;42.18;100676.00;5048306;28;5374;-76
2022/12/13 04:41:26;;;;;;;;;;;;;;;20.77;42.25;100681.75;5049076;28;4152;-75
2022/12/13 04:43:59;;;;;;;;;;;;;;;20.76;42.03;100691.78;5044862;28;4261;-75
2022/12/13 04:46:26;;;;;;;;;;;;;;;20.77;42.05;100678.88;5039104;28;4137;-76
2022/12/13 04:48:52;;;;;;;;;;;;;;;20.77;41.98;100687.50;5038662;28;4167;-75
2022/12/13 04:51:21;;;;;;;;;;;;;;;20.78;41.98;100688.28;5031701;28;4195;-76
2022/12/13 04:53:47;;;;;;;;;;;;;;;20.77;42.08;100684.63;5038812;28;4128;-75
2022/12/13 04:56:14;;;;;;;;;;;;;;;20.78;42.06;100688.28;5038130;28;5501;-75
2022/12/13 04:58:40;;;;;;;;;;;;;;;20.80;41.93;100686.22;5036261;28;4212;-75
2022/12/13 05:01:07;;;;;;;;;;;;;;;20.81;42.05;100686.94;5033298;28;4204;-76
2022/12/13 05:03:33;;;;;;;;;;;;;;;20.82;42.24;100689.19;5040331;28;5422;-75
2022/12/13 05:06:09;;;;;;;;;;;;;;;20.83;42.16;100684.88;5043183;28;4182;-75
2022/12/13 05:08:52;;;;;;;;;;;;;;;20.84;42.19;100685.63;5043593;28;4280;-75
2022/12/13 05:11:20;;;;;;;;;;;;;;;20.83;42.20;100684.88;5032564;28;4187;-75
2022/12/13 05:13:48;;;;;;;;;;;;;;;20.84;42.20;100685.63;5043092;28;5191;-75
2022/12/13 05:16:14;;;;;;;;;;;;;;;20.81;42.15;100681.19;5040526;28;5187;-75
2022/12/13 05:18:41;;;;;;;;;;;;;;;20.81;42.03;100681.19;5039349;28;4251;-75
2022/12/13 05:21:08;;;;;;;;;;;;;;;20.79;42.04;100684.72;5040412;28;4209;-75
2022/12/13 05:23:35;;;;;;;;;;;;;;;20.78;42.04;100682.50;5042223;28;4560;-76
2022/12/13 05:26:01;;;;;;;;;;;;;;;20.77;41.95;100673.13;5039272;28;4179;-76
2022/12/13 05:28:27;;;;;;;;;;;;;;;20.78;41.71;100676.75;5040276;28;4037;-75
2022/12/13 05:30:54;;;;;;;;;;;;;;;20.77;41.69;100681.75;5036805;28;4016;-75
2022/12/13 05:33:21;;;;;;;;;;;;;;;20.77;41.72;100678.88;5042341;28;4226;-75
2022/12/13 05:35:47;;;;;;;;;;;;;;;20.76;41.60;100679.56;5041514;28;3990;-75
2022/12/13 05:38:14;;;;;;;;;;;;;;;20.75;41.74;100669.41;5040282;28;4249;-76
2022/12/13 05:40:40;;;;;;;;;;;;;;;20.74;41.48;100677.31;5041922;28;4008;-75
2022/12/13 05:43:07;;;;;;;;;;;;;;;20.72;41.63;100680.09;5049106;28;4107;-75
2022/12/13 05:45:47;;;;;;;;;;;;;;;20.75;41.47;100678.06;5048432;28;5228;-75
2022/12/13 05:48:17;;;;;;;;;;;;;;;20.74;41.63;100674.44;5047609;28;5276;-75
2022/12/13 05:50:50;;;;;;;;;;;;;;;20.76;41.53;100674.53;5041174;28;4078;-75
2022/12/13 05:53:16;;;;;;;;;;;;;;;20.76;41.76;100670.91;5053544;28;4120;-75
2022/12/13 05:55:59;;;;;;;;;;;;;;;20.76;41.59;100677.41;5053579;28;4211;-76
2022/12/13 05:58:26;;;;;;;;;;;;;;;20.79;41.75;100672.47;5051997;28;4168;-75
2022/12/13 06:01:08;;;;;;;;;;;;;;;20.79;41.60;100669.59;5046677;28;4309;-76
2022/12/13 06:03:34;;;;;;;;;;;;;;;20.79;41.68;100673.19;5057451;28;4181;-75
2022/12/13 06:06:02;;;;;;;;;;;;;;;20.78;41.80;100683.25;5046363;28;4176;-75
2022/12/13 06:08:29;;;;;;;;;;;;;;;20.79;41.68;100684.72;5056093;28;4104;-75
2022/12/13 06:10:56;;;;;;;;;;;;;;;20.79;41.80;100681.84;5044947;28;5299;-75
2022/12/13 06:13:37;;;;;;;;;;;;;;;20.79;41.71;100689.75;5051811;28;4405;-75
2022/12/13 06:16:08;;;;;;;;;;;;;;;20.77;41.67;100687.50;5049031;28;4063;-75
2022/12/13 06:18:49;;;;;;;;;;;;;;;20.76;41.60;100688.91;5055699;28;5416;-76
2022/12/13 06:21:16;;;;;;;;;;;;;;;20.77;41.58;100692.53;5055899;28;4346;-75
2022/12/13 06:23:43;;;;;;;;;;;;;;;20.76;41.48;100688.91;5045557;28;4566;-75
2022/12/13 06:26:09;;;;;;;;;;;;;;;20.74;41.42;100688.81;5050326;28;4217;-71
2022/12/13 06:28:35;;;;;;;;;;;;;;;20.73;41.19;100687.34;5038854;28;4497;-75
2022/12/13 06:31:02;;;;;;;;;;;;;;;20.71;41.23;100688.00;5030566;28;4210;-67
2022/12/13 06:33:28;;;;;;;;;;;;;;;20.80;40.73;100702.72;5026530;28;5164;-67
2022/12/13 06:35:55;;;;;;;;;;;;;;;20.84;41.03;100697.88;5034618;28;4303;-68
2022/12/13 06:38:22;;;;;;;;;;;;;;;20.81;40.57;100693.44;5039164;28;4305;-67
2022/12/13 06:41:10;;;;;;;;;;;;;;;20.85;39.52;100699.38;5037130;28;4098;-68
2022/12/13 06:43:36;;;;;;;;;;;;;;;20.88;38.83;100700.94;5037158;28;4359;-67
2022/12/13 06:46:03;;;;;;;;;;;;;;;20.92;38.34;100703.97;5039351;28;4099;-68
2022/12/13 06:48:30;;;;;;;;;;;;;;;20.95;38.21;100701.19;5045126;28;4197;-71
2022/12/13 06:50:58;;;;;;;;;;;;;;;21.01;37.44;100710.81;5039130;28;5240;-71
2022/12/13 06:53:24;;;;;;;;;;;;;;;21.14;38.09;100709.16;5036929;28;4042;-66
2022/12/13 06:55:51;;;;;;;;;;;;;;;21.20;37.27;100709.41;5035105;28;4140;-67
2022/12/13 06:58:17;;;;;;;;;;;;;;;21.22;36.97;100705.88;5031124;28;4135;-67
2022/12/13 07:00:44;;;;;;;;;;;;;;;21.23;38.09;100713.84;5034783;28;4218;-67
2022/12/13 07:03:14;;;;;;;;;;;;;;;21.13;36.80;100711.31;5030159;28;4009;-67
2022/12/13 07:05:41;;;;;;;;;;;;;;;20.64;35.59;100717.19;5030323;28;4215;-66
2022/12/13 07:08:08;;;;;;;;;;;;;;;20.84;36.71;100718.00;5031512;28;5264;-67
2022/12/13 07:10:36;;;;;;;;;;;;;;;21.08;36.44;100718.31;5032830;28;4034;-68
2022/12/13 07:13:03;;;;;;;;;;;;;;;21.14;36.87;100723.56;5028837;28;4197;-67
2022/12/13 07:15:31;;;;;;;;;;;;;;;21.22;37.49;100718.13;5031553;28;3965;-69
2022/12/13 07:17:57;;;;;;;;;;;;;;;21.23;37.59;100719.59;5036239;28;4047;-71
2022/12/13 07:20:24;;;;;;;;;;;;;;;21.16;38.08;100715.00;5038289;28;4085;-68
2022/12/13 07:22:55;;;;;;;;;;;;;;;21.08;38.60;100720.44;5029591;28;4188;-69
2022/12/13 07:25:24;;;;;;;;;;;;;;;21.11;38.73;100725.63;5045594;28;4002;-68
2022/12/13 07:27:55;;;;;;;;;;;;;;;21.11;39.02;100727.75;5040856;28;4099;-67
2022/12/13 07:30:27;;;;;;;;;;;;;;;21.10;39.15;100729.16;5044058;28;4099;-67
2022/12/13 07:32:53;;;;;;;;;;;;;;;21.05;39.27;100722.50;5042974;28;4034;-67
2022/12/13 07:35:20;;;;;;;;;;;;;;;21.03;39.52;100733.19;5045788;28;4063;-67
2022/12/13 07:37:46;;;;;;;;;;;;;;;21.03;39.70;100731.06;5038858;28;4269;-68
2022/12/13 07:40:12;;;;;;;;;;;;;;;21.04;39.66;100737.56;5040798;28;4289;-68
2022/12/13 07:42:39;;;;;;;;;;;;;;;21.00;39.92;100734.50;5038736;28;4242;-65
2022/12/13 07:45:05;;;;;;;;;;;;;;;20.89;40.25;100751.34;5042171;28;4060;-65
2022/12/13 07:47:35;;;;;;;;;;;;;;;21.23;39.64;100742.66;5040409;28;4860;-66
2022/12/13 07:50:02;;;;;;;;;;;;;;;21.42;39.26;100740.56;5046724;28;4182;-69
2022/12/13 07:52:42;;;;;;;;;;;;;;;21.42;39.00;100738.41;5037945;28;4186;-65
2022/12/13 07:55:08;;;;;;;;;;;;;;;21.44;39.04;100749.25;5042048;28;4114;-65
2022/12/13 07:57:34;;;;;;;;;;;;;;;21.49;39.00;100748.03;5037934;28;4228;-63
2022/12/13 08:00:01;;;;;;;;;;;;;;;21.54;39.07;100755.44;5049777;28;4011;-62
2022/12/13 08:02:38;;;;;;;;;;;;;;;21.55;39.10;100748.28;5041470;28;5455;-62
2022/12/13 08:05:05;;;;;;;;;;;;;;;21.57;39.73;100757.00;5040404;28;4186;-66
2022/12/13 08:07:51;;;;;;;;;;;;;;;21.60;39.47;100758.56;5048236;28;4206;-62
2022/12/13 08:10:19;;;;;;;;;;;;;;;21.60;39.00;100755.69;5046873;28;4173;-64
2022/12/13 08:12:45;;;;;;;;;;;;;;;21.64;39.14;100761.59;5045813;28;5289;-64
2022/12/13 08:15:12;;;;;;;;;;;;;;;21.55;38.91;100759.78;5054909;28;4163;-64
2022/12/13 08:17:46;;;;;;;;;;;;;;;21.54;38.87;100755.44;5046869;28;4347;-63
2022/12/13 08:20:12;;;;;;;;;;;;;;;21.51;38.93;100765.41;5051670;28;4609;-64
2022/12/13 08:22:54;;;;;;;;;;;;;;;21.49;38.91;100759.56;5046092;28;4085;-66
2022/12/13 08:25:28;;;;;;;;;;;;;;;21.63;38.68;100759.41;5048654;28;4153;-65
2022/12/13 08:27:54;;;;;;;;;;;;;;;21.63;38.62;100760.13;5049157;28;5203;-65
2022/12/13 08:30:27;;;;;;;;;;;;;;;21.71;38.67;100763.31;5049607;28;4105;-65
2022/12/13 08:32:54;;;;;;;;;;;;;;;21.67;38.59;100766.06;5038997;28;4444;-67
2022/12/13 08:35:21;;;;;;;;;;;;;;;21.66;38.33;100753.03;5053288;28;4161;-66
2022/12/13 08:37:48;;;;;;;;;;;;;;;21.68;38.48;100764.66;5049669;28;4110;-65
2022/12/13 08:40:14;;;;;;;;;;;;;;;21.74;38.46;100764.88;5054526;28;5343;-65
2022/12/13 08:42:41;;;;;;;;;;;;;;;21.80;38.54;100769.41;5042595;28;4133;-64
2022/12/13 08:45:07;;;;;;;;;;;;;;;21.73;38.52;100774.19;5054190;28;4230;-64
2022/12/13 08:47:34;;;;;;;;;;;;;;;21.69;38.81;100771.91;5056511;28;4228;-63
2022/12/13 08:50:07;;;;;;;;;;;;;;;21.73;38.69;100786.44;5055314;28;4878;-62
2022/12/13 08:52:33;;;;;;;;;;;;;;;21.83;38.64;100779.59;5051118;28;4140;-65
2022/12/13 08:55:06;;;;;;;;;;;;;;;21.88;38.68;100781.25;5048078;28;4004;-66
2022/12/13 08:57:34;;;;;;;;;;;;;;;21.80;38.64;100781.66;5052987;28;4306;-62
2022/12/13 09:00:01;;;;;;;;;;;;;;;21.78;38.75;100783.75;5050279;28;5384;-63
2022/12/13 09:02:27;;;;;;;;;;;;;;;21.73;38.68;100774.19;5043855;28;4199;-65
2022/12/13 09:04:54;;;;;;;;;;;;;;;21.63;38.79;100782.44;5044476;28;5591;-66
2022/12/13 09:07:20;;;;;;;;;;;;;;;21.60;39.07;100780.88;5047466;28;4209;-67
2022/12/13 09:09:47;;;;;;;;;;;;;;;21.62;39.04;100783.84;5045319;28;4134;-64
2022/12/13 09:12:21;;;;;;;;;;;;;;;21.65;39.16;100774.63;5049318;28;4181;-61
2022/12/13 09:14:56;;;;;;;;;;;;;;;21.70;38.81;100782.03;5053433;28;5244;-64
2022/12/13 09:17:27;;;;;;;;;;;;;;;21.73;38.74;100785.72;5056749;28;4165;-65
2022/12/13 09:20:02;;;;;;;;;;;;;;;21.70;39.01;100787.78;5049148;28;4304;-63
2022/12/13 09:22:49;;;;;;;;;;;;;;;21.59;38.95;100785.16;5047495;28;4135;-64
2022/12/13 09:25:15;;;;;;;;;;;;;;;21.56;39.32;100783.59;5049212;28;4132;-65
2022/12/13 09:27:49;;;;;;;;;;;;;;;21.42;39.84;100787.38;5043180;28;5429;-69
2022/12/13 09:30:15;;;;;;;;;;;;;;;21.31;39.93;100783.31;5046137;28;4016;-68
2022/12/13 09:32:48;;;;;;;;;;;;;;;21.27;39.66;100783.13;5041978;28;4123;-67
2022/12/13 09:35:14;;;;;;;;;;;;;;;21.30;40.12;100781.84;5043136;28;5107;-67
2022/12/13 09:37:41;;;;;;;;;;;;;;;21.25;40.05;100785.94;5036613;28;4219;-66
2022/12/13 09:40:18;;;;;;;;;;;;;;;21.15;40.00;100787.66;5041634;28;4232;-65
2022/12/13 09:42:54;;;;;;;;;;;;;;;21.18;40.45;100792.09;5041071;28;4214;-67
2022/12/13 09:45:39;;;;;;;;;;;;;;;20.76;39.19;100792.50;5039281;28;4051;-67
2022/12/13 09:48:09;;;;;;;;;;;;;;;20.87;37.71;100785.81;5016429;28;6437;-67
2022/12/13 09:50:38;;;;;;;;;;;;;;;20.99;38.62;100776.22;5038674;28;7287;-66
2022/12/13 09:53:20;;;;;;;;;;;;;;;21.08;39.22;100780.91;5032403;28;4122;-68
2022/12/13 09:55:51;;;;;;;;;;;;;;;21.20;39.00;100772.78;5033449;28;4020;-69
2022/12/13 09:58:22;;;;;;;;;;;;;;;21.06;39.03;100783.69;5039714;28;4191;-69
2022/12/13 10:00:50;;;;;;;;;;;;;;;21.26;38.87;100775.91;5039585;28;4123;-69
2022/12/13 10:03:17;;;;;;;;;;;;;;;21.24;39.03;100778.69;5041347;28;4301;-69
2022/12/13 10:05:46;;;;;;;;;;;;;;;21.21;39.35;100771.38;5039726;28;4157;-71
2022/12/13 10:08:13;;;;;;;;;;;;;;;21.21;39.64;100762.75;5031552;28;4497;-71
2022/12/13 10:10:40;;;;;;;;;;;;;;;21.16;39.42;100769.72;5035235;28;4626;-72
2022/12/13 10:13:12;;;;;;;;;;;;;;;21.18;39.55;100772.69;5032097;28;4874;-74
2022/12/13 10:15:40;;;;;;;;;;;;;;;21.29;39.46;100768.81;5039166;28;4224;-74
2022/12/13 10:18:09;;;;;;;;;;;;;;;21.38;39.33;100777.81;5042806;28;4189;-71
2022/12/13 10:20:36;;;;;;;;;;;;;;;21.42;39.89;100775.13;5048319;28;4174;-70
2022/12/13 10:23:02;;;;;;;;;;;;;;;21.55;39.70;100771.31;5045985;28;4211;-69
2022/12/13 10:25:54;;;;;;;;;;;;;;;21.64;39.61;100761.59;5043092;28;4197;-69
2022/12/13 10:28:29;;;;;;;;;;;;;;;21.68;39.54;100767.53;5050124;28;4271;-70
2022/12/13 10:30:56;;;;;;;;;;;;;;;21.69;39.52;100766.13;5046371;28;4159;-70
2022/12/13 10:33:29;;;;;;;;;;;;;;;21.71;39.49;100760.44;5040875;28;4040;-71
2022/12/13 10:36:10;;;;;;;;;;;;;;;21.77;39.24;100759.94;5045502;28;4155;-71
2022/12/13 10:38:41;;;;;;;;;;;;;;;21.77;39.13;100767.84;5045385;28;4069;-78
2022/12/13 10:41:23;;;;;;;;;;;;;;;21.77;39.15;100756.31;5036459;28;4916;-81
2022/12/13 10:44:08;;;;;;;;;;;;;;;21.78;39.06;100764.28;5028544;28;6320;-78
2022/12/13 10:46:34;;;;;;;;;;;;;;;21.71;39.04;100756.81;5039360;28;4153;-78
2022/12/13 10:49:11;;;;;;;;;;;;;;;21.62;39.18;100752.88;5035836;28;4196;-82
2022/12/13 10:51:41;;;;;;;;;;;;;;;21.61;39.22;100747.78;5041805;28;4182;-78
2022/12/13 10:54:13;;;;;;;;;;;;;;;21.71;39.46;100748.91;5038877;28;4285;-83
2022/12/13 10:56:43;;;;;;;;;;;;;;;21.71;39.21;100748.91;5044883;28;4096;-81
2022/12/13 10:59:11;;;;;;;;;;;;;;;21.78;39.20;100749.16;5042184;28;4091;-84
2022/12/13 11:01:45;;;;;;;;;;;;;;;21.75;39.13;100751.94;5042301;28;4155;-80
2022/12/13 11:04:22;;;;;;;;;;;;;;;21.75;39.01;100751.94;5049096;28;4250;-79
2022/12/13 11:06:53;;;;;;;;;;;;;;;21.73;39.17;100749.00;5037057;28;5272;-82
2022/12/13 11:09:23;;;;;;;;;;;;;;;21.77;39.32;100744.78;5033339;28;4922;-82
2022/12/13 11:11:53;;;;;;;;;;;;;;;21.78;38.95;100740.50;5037286;28;4197;-77
2022/12/13 11:14:24;;;;;;;;;;;;;;;21.73;39.35;100746.09;5046149;28;5383;-76
2022/12/13 11:16:58;;;;;;;;;;;;;;;21.76;39.42;100744.03;5040846;28;4385;-77
2022/12/13 11:19:35;;;;;;;;;;;;;;;21.75;39.53;100749.06;5044525;28;4174;-74
2022/12/13 11:22:01;;;;;;;;;;;;;;;21.72;39.74;100744.63;5049437;28;4214;-78
2022/12/13 11:24:29;;;;;;;;;;;;;;;21.63;39.79;100737.06;5037524;28;4168;-74
2022/12/13 11:27:34;;;;;;;;;;;;;;;21.53;39.95;100739.53;5039224;28;4143;-78
2022/12/13 11:30:02;;;;;;;;;;;;;;;21.65;39.87;100731.41;4973004;28;4065;-78
2022/12/13 11:32:35;;;;;;;;;;;;;;;21.50;39.85;100735.09;4981028;28;3989;-70
2022/12/13 11:35:20;;;;;;;;;;;;;;;21.61;39.65;100736.25;5014931;28;4103;-73
2022/12/13 11:37:53;;;;;;;;;;;;;;;21.62;39.62;100729.09;5040873;28;3903;-70
2022/12/13 11:40:24;;;;;;;;;;;;;;;21.66;39.44;100732.84;5041613;28;4832;-72
2022/12/13 11:43:09;;;;;;;;;;;;;;;21.64;39.49;100726.28;5042026;28;4159;-70
2022/12/13 11:45:36;;;;;;;;;;;;;;;21.69;39.35;100734.44;5032862;28;4181;-73
2022/12/13 11:48:11;;;;;;;;;;;;;;;21.71;39.28;100725.84;5040804;28;5284;-74
2022/12/13 11:50:39;;;;;;;;;;;;;;;21.71;39.37;100731.59;5045833;28;4294;-72
2022/12/13 11:53:33;;;;;;;;;;;;;;;21.72;39.52;100729.50;5045757;28;3997;-74
2022/12/13 11:56:10;;;;;;;;;;;;;;;21.70;39.59;100724.38;5036684;28;3951;-72
2022/12/13 11:58:43;;;;;;;;;;;;;;;21.72;39.41;100724.47;5041063;28;3870;-72
2022/12/13 12:01:39;;;;;;;;;;;;;;;21.69;39.51;100728.69;5040337;28;3925;-73
2022/12/13 12:04:09;;;;;;;;;;;;;;;21.73;39.32;100736.72;5045990;28;3973;-76
2022/12/13 12:06:44;;;;;;;;;;;;;;;21.74;39.96;100735.34;5041554;28;3900;-73
2022/12/13 12:09:14;;;;;;;;;;;;;;;21.80;40.06;100729.06;5042546;28;4589;-72
2022/12/13 12:11:50;;;;;;;;;;;;;;;21.82;39.98;100732.03;5042983;28;5320;-72
2022/12/13 12:14:20;;;;;;;;;;;;;;;21.83;39.79;100740.00;5041761;28;4109;-73
2022/12/13 12:16:48;;;;;;;;;;;;;;;21.71;40.17;100743.13;5038068;28;4911;-72
2022/12/13 12:19:15;;;;;;;;;;;;;;;21.69;40.08;100739.44;5051374;28;3907;-73
2022/12/13 12:21:49;;;;;;;;;;;;;;;21.74;40.44;100741.84;5040116;28;4052;-74
2022/12/13 12:24:44;;;;;;;;;;;;;;;21.82;39.97;100740.66;5045730;28;4106;-74
2022/12/13 12:27:29;;;;;;;;;;;;;;;21.80;40.33;100743.47;5038261;28;3993;-69
2022/12/13 12:29:58;;;;;;;;;;;;;;;21.78;40.59;100741.25;5043594;28;3934;-70
2022/12/13 12:32:27;;;;;;;;;;;;;;;21.77;40.52;100727.50;5037434;28;4061;-73
2022/12/13 12:35:12;;;;;;;;;;;;;;;21.75;40.66;100728.91;5042006;28;4045;-73
2022/12/13 12:37:38;;;;;;;;;;;;;;;21.78;40.74;100732.59;5045528;28;3931;-75
2022/12/13 12:40:10;;;;;;;;;;;;;;;21.75;40.21;100734.66;5041896;28;3937;-71
2022/12/13 12:42:57;;;;;;;;;;;;;;;21.83;40.46;100725.59;5044380;28;4497;-70
2022/12/13 12:45:41;;;;;;;;;;;;;;;21.81;40.23;100727.66;5046492;28;3917;-69
2022/12/13 12:48:41;;;;;;;;;;;;;;;21.78;40.47;100734.75;5045093;28;4006;-69
2022/12/13 12:51:53;;;;;;;;;;;;;;;21.67;40.36;100730.72;5029916;28;4438;-69
2022/12/13 12:54:25;;;;;;;;;;;;;;;21.77;40.13;100731.13;5043762;28;4216;-69
2022/12/13 12:57:00;;;;;;;;;;;;;;;21.79;39.87;100730.47;5048498;28;4011;-69
2022/12/13 12:59:30;;;;;;;;;;;;;;;21.75;40.15;100731.78;5046831;28;4327;-70
2022/12/13 13:01:56;;;;;;;;;;;;;;;21.77;40.07;100731.13;5046088;28;4181;-69
2022/12/13 13:04:25;;;;;;;;;;;;;;;21.92;40.06;100729.50;5047096;28;4255;-70
2022/12/13 13:06:55;;;;;;;;;;;;;;;21.90;39.83;100741.00;5049479;28;4235;-71
2022/12/13 13:09:27;;;;;;;;;;;;;;;21.94;40.27;100738.25;5049350;28;4169;-72
2022/12/13 13:11:53;;;;;;;;;;;;;;;22.10;39.85;100724.41;5052681;28;4210;-67
2022/12/13 13:14:27;;;;;;;;;;;;;;;22.23;39.43;100742.97;5055964;28;4108;-67
2022/12/13 13:16:54;;;;;;;;;;;;;;;21.78;39.97;100732.59;5049819;28;4440;-68
2022/12/13 13:19:47;;;;;;;;;;;;;;;21.63;40.77;100731.31;5043937;28;4730;-69
2022/12/13 13:22:37;;;;;;;;;;;;;;;21.75;40.08;100728.91;5049041;28;4928;-70
2022/12/13 13:25:08;;;;;;;;;;;;;;;20.50;34.40;100731.63;5045089;28;4124;-67
2022/12/13 13:27:44;;;;;;;;;;;;;;;20.80;36.54;100729.38;5044441;28;4227;-69